Time;durP1;ratioP1;P1;durP2;ratioP2;P2;SDS_P1;SDS_P2;PMS_P1;PMS_P2;Temp;Humidity;BMP_temperature;BMP_pressure;BME280_temperature;BME280_humidity;BME280_pressure;Samples;Min_cycle;Max_cycle;Signal;HPM_P1;HPM_P2
2023/07/12 00:00:24;;;;;;;2.90;2.42;;;21.30;99.90;;;;;;5094381;28;20208;-61
2023/07/12 00:02:51;;;;;;;2.83;2.55;;;21.40;99.90;;;;;;5094232;28;20227;-58
2023/07/12 00:05:19;;;;;;;4.55;2.50;;;21.40;99.90;;;;;;5094023;28;20615;-57
2023/07/12 00:07:46;;;;;;;4.18;2.78;;;21.40;99.90;;;;;;5093777;28;20200;-58
2023/07/12 00:10:20;;;;;;;4.97;2.53;;;21.40;99.90;;;;;;5094249;28;20295;-58
2023/07/12 00:12:48;;;;;;;3.15;2.60;;;21.30;99.90;;;;;;5094222;28;20285;-59
2023/07/12 00:15:18;;;;;;;3.75;2.60;;;21.30;99.90;;;;;;5094155;28;20207;-58
2023/07/12 00:17:45;;;;;;;2.65;2.00;;;21.30;99.90;;;;;;5093506;28;20756;-58
2023/07/12 00:20:28;;;;;;;3.08;1.90;;;21.10;99.90;;;;;;5093684;28;20622;-57
2023/07/12 00:22:55;;;;;;;2.95;2.00;;;21.00;99.90;;;;;;5091876;28;20614;-57
2023/07/12 00:25:24;;;;;;;4.68;2.35;;;21.00;99.90;;;;;;5093737;28;20207;-56
2023/07/12 00:27:53;;;;;;;2.65;2.03;;;21.00;99.90;;;;;;5093463;28;20196;-58
2023/07/12 00:30:21;;;;;;;4.30;2.33;;;20.90;99.90;;;;;;5093484;28;20666;-56
2023/07/12 00:32:49;;;;;;;2.38;2.17;;;20.90;99.90;;;;;;5093420;28;20641;-57
2023/07/12 00:35:18;;;;;;;2.75;2.20;;;20.90;99.90;;;;;;5092973;28;20291;-56
2023/07/12 00:37:45;;;;;;;4.25;2.20;;;21.00;99.90;;;;;;5093139;28;20294;-57
2023/07/12 00:40:47;;;;;;;4.07;2.03;;;21.00;99.90;;;;;;5093519;28;20232;-57
2023/07/12 00:43:22;;;;;;;2.72;1.95;;;21.00;99.90;;;;;;5093244;28;20235;-58
2023/07/12 00:45:51;;;;;;;3.35;2.10;;;21.00;99.90;;;;;;5093209;28;20208;-56
2023/07/12 00:48:19;;;;;;;4.00;1.92;;;21.00;99.90;;;;;;5093440;28;20254;-57
2023/07/12 00:50:47;;;;;;;3.60;1.80;;;20.90;99.90;;;;;;5093137;28;20240;-57
2023/07/12 00:53:15;;;;;;;2.63;1.85;;;20.90;99.90;;;;;;5093172;28;20231;-58
2023/07/12 00:55:57;;;;;;;2.65;1.75;;;21.00;99.90;;;;;;5092851;28;20208;-57
2023/07/12 00:58:27;;;;;;;2.75;2.20;;;21.00;99.90;;;;;;5093109;28;20224;-56
2023/07/12 01:00:55;;;;;;;2.50;2.10;;;21.00;99.90;;;;;;5093207;28;20261;-56
2023/07/12 01:03:24;;;;;;;2.97;2.10;;;21.10;99.90;;;;;;5093048;28;20232;-57
2023/07/12 01:05:51;;;;;;;3.03;1.92;;;21.30;99.90;;;;;;5092775;28;20211;-57
2023/07/12 01:08:18;;;;;;;2.65;1.92;;;21.30;99.90;;;;;;5092774;28;21178;-58
2023/07/12 01:10:45;;;;;;;4.60;1.73;;;21.30;99.90;;;;;;5093002;28;20239;-56
2023/07/12 01:13:12;;;;;;;3.65;1.90;;;21.40;99.90;;;;;;5093052;28;20447;-57
2023/07/12 01:15:40;;;;;;;2.25;1.48;;;21.50;99.90;;;;;;5092844;28;20199;-58
2023/07/12 01:18:07;;;;;;;2.08;1.60;;;21.70;99.90;;;;;;5092578;28;20297;-56
2023/07/12 01:20:40;;;;;;;2.45;1.85;;;21.80;99.90;;;;;;5092527;28;20306;-58
2023/07/12 01:23:08;;;;;;;3.33;1.77;;;21.90;99.90;;;;;;5092987;28;20308;-57
2023/07/12 01:25:39;;;;;;;3.40;1.98;;;21.90;99.90;;;;;;5092626;28;20254;-57
2023/07/12 01:28:06;;;;;;;2.08;1.80;;;21.80;99.90;;;;;;5092264;28;20277;-57
2023/07/12 01:30:33;;;;;;;2.28;1.83;;;21.80;99.90;;;;;;5092651;28;20274;-59
2023/07/12 01:33:00;;;;;;;2.60;1.85;;;21.70;99.90;;;;;;5092215;28;20224;-57
2023/07/12 01:35:27;;;;;;;4.28;1.70;;;21.70;99.90;;;;;;5092289;28;20706;-56
2023/07/12 01:37:54;;;;;;;1.98;1.50;;;21.70;99.90;;;;;;5091892;28;20644;-56
2023/07/12 01:40:22;;;;;;;3.38;1.70;;;21.70;99.90;;;;;;5091989;28;20671;-58
2023/07/12 01:42:49;;;;;;;3.47;1.63;;;21.70;99.90;;;;;;5092135;28;20220;-58
2023/07/12 01:45:16;;;;;;;2.00;1.45;;;21.70;99.90;;;;;;5092373;28;20204;-57
2023/07/12 01:47:44;;;;;;;2.75;1.67;;;21.60;99.90;;;;;;5091789;28;20207;-58
2023/07/12 01:50:11;;;;;;;2.95;1.70;;;21.70;99.90;;;;;;5092416;28;20211;-57
2023/07/12 01:52:37;;;;;;;2.10;1.55;;;21.70;99.90;;;;;;5092157;28;20224;-57
2023/07/12 01:55:04;;;;;;;2.67;1.70;;;21.80;99.90;;;;;;5092150;28;20285;-58
2023/07/12 01:57:32;;;;;;;4.43;1.45;;;21.70;99.90;;;;;;5091639;28;20220;-58
2023/07/12 01:59:59;;;;;;;4.20;1.70;;;21.60;99.90;;;;;;5092016;28;20621;-58
2023/07/12 02:02:28;;;;;;;2.30;1.75;;;21.50;99.90;;;;;;5091792;28;20646;-57
2023/07/12 02:04:55;;;;;;;2.53;1.35;;;21.60;99.90;;;;;;5091976;28;20208;-57
2023/07/12 02:07:21;;;;;;;3.33;1.70;;;21.50;99.90;;;;;;5091640;28;20203;-57
2023/07/12 02:10:10;;;;;;;2.25;1.70;;;21.50;99.90;;;;;;5092040;28;20204;-57
2023/07/12 02:12:38;;;;;;;3.65;1.77;;;21.50;99.90;;;;;;5091521;28;20281;-57
2023/07/12 02:15:06;;;;;;;1.65;1.50;;;21.50;99.90;;;;;;5091757;28;20568;-57
2023/07/12 02:17:33;;;;;;;3.95;1.92;;;21.50;99.90;;;;;;5091504;28;20216;-57
2023/07/12 02:20:00;;;;;;;5.25;1.77;;;21.40;99.90;;;;;;5091789;28;20208;-57
2023/07/12 02:22:29;;;;;;;2.30;1.60;;;21.30;99.90;;;;;;5091558;28;20236;-57
2023/07/12 02:24:55;;;;;;;2.25;1.55;;;21.30;99.90;;;;;;5091502;28;20877;-57
2023/07/12 02:27:22;;;;;;;2.20;1.70;;;21.20;99.90;;;;;;5091106;28;20254;-58
2023/07/12 02:29:50;;;;;;;2.42;1.60;;;21.00;99.90;;;;;;5091580;28;20622;-57
2023/07/12 02:32:17;;;;;;;2.55;1.50;;;21.10;99.90;;;;;;5091431;28;20727;-56
2023/07/12 02:34:44;;;;;;;3.30;1.80;;;21.00;99.90;;;;;;5091635;28;20257;-57
2023/07/12 02:37:10;;;;;;;6.55;1.70;;;21.00;99.90;;;;;;5091259;28;20203;-58
2023/07/12 02:39:37;;;;;;;2.70;1.67;;;20.90;99.90;;;;;;5091473;28;20205;-58
2023/07/12 02:42:04;;;;;;;2.05;1.55;;;20.90;99.90;;;;;;5091304;28;20790;-58
2023/07/12 02:44:31;;;;;;;2.78;1.60;;;20.90;99.90;;;;;;5091663;28;20204;-57
2023/07/12 02:46:59;;;;;;;3.67;1.70;;;21.00;99.90;;;;;;5091441;28;20608;-56
2023/07/12 02:49:25;;;;;;;2.80;1.67;;;21.10;99.90;;;;;;5091406;28;20622;-57
2023/07/12 02:51:52;;;;;;;3.25;2.20;;;21.10;99.90;;;;;;5091152;28;20642;-56
2023/07/12 02:54:19;;;;;;;7.03;2.00;;;21.20;99.90;;;;;;5091221;28;20349;-57
2023/07/12 02:56:45;;;;;;;3.10;1.80;;;21.20;99.90;;;;;;5091234;28;20204;-56
2023/07/12 02:59:12;;;;;;;10.40;3.10;;;21.30;99.90;;;;;;5093172;28;20718;-57
2023/07/12 03:01:39;;;;;;;3.38;2.13;;;21.30;99.90;;;;;;5095380;28;20235;-59
2023/07/12 03:04:07;;;;;;;4.55;2.80;;;21.30;99.90;;;;;;5095332;28;20759;-57
2023/07/12 03:06:33;;;;;;;5.43;2.75;;;21.40;99.90;;;;;;5095738;28;20659;-56
2023/07/12 03:09:00;;;;;;;3.85;2.28;;;21.40;99.90;;;;;;5095112;28;20205;-57
2023/07/12 03:11:27;;;;;;;9.73;6.40;;;21.40;99.90;;;;;;5094815;28;20200;-58
2023/07/12 03:13:53;;;;;;;4.68;4.13;;;21.40;99.90;;;;;;5095305;28;20273;-57
2023/07/12 03:16:20;;;;;;;3.67;2.03;;;21.50;99.90;;;;;;5094732;28;20668;-57
2023/07/12 03:18:48;;;;;;;4.22;2.63;;;21.40;99.90;;;;;;5094896;28;20724;-56
2023/07/12 03:21:16;;;;;;;4.95;2.25;;;21.50;99.90;;;;;;5094876;28;20582;-57
2023/07/12 03:23:43;;;;;;;6.43;2.15;;;21.60;99.90;;;;;;5094769;28;20277;-56
2023/07/12 03:26:10;;;;;;;3.60;2.08;;;21.60;99.90;;;;;;5094739;28;20615;-57
2023/07/12 03:28:37;;;;;;;5.32;2.50;;;21.60;99.90;;;;;;5094850;28;20211;-57
2023/07/12 03:31:06;;;;;;;3.83;2.28;;;21.70;99.90;;;;;;5094685;28;20208;-58
2023/07/12 03:33:33;;;;;;;7.28;2.10;;;21.70;99.90;;;;;;5094859;28;20228;-56
2023/07/12 03:36:01;;;;;;;4.88;2.10;;;21.70;99.90;;;;;;5094356;28;20212;-57
2023/07/12 03:38:30;;;;;;;4.82;1.98;;;21.70;99.90;;;;;;5094777;28;20224;-57
2023/07/12 03:40:59;;;;;;;4.43;2.22;;;21.70;99.90;;;;;;5094746;28;20204;-57
2023/07/12 03:43:26;;;;;;;5.90;2.42;;;21.70;99.90;;;;;;5094522;28;20411;-58
2023/07/12 03:45:53;;;;;;;3.65;2.13;;;21.70;99.90;;;;;;5094159;28;20208;-58
2023/07/12 03:48:21;;;;;;;5.43;2.13;;;21.70;99.90;;;;;;5094379;28;20246;-58
2023/07/12 03:50:48;;;;;;;4.50;3.00;;;21.80;99.90;;;;;;5094324;28;20211;-57
2023/07/12 03:53:15;;;;;;;4.85;2.17;;;21.80;99.90;;;;;;5094370;28;20227;-57
2023/07/12 03:55:45;;;;;;;3.78;2.30;;;21.90;99.90;;;;;;5094375;28;20208;-59
2023/07/12 03:58:15;;;;;;;5.57;2.60;;;22.00;99.90;;;;;;5094530;28;20688;-58
2023/07/12 04:00:43;;;;;;;3.47;1.88;;;21.90;99.90;;;;;;5094646;28;20634;-58
2023/07/12 04:03:10;;;;;;;6.82;2.40;;;22.00;99.90;;;;;;5093986;28;20334;-57
2023/07/12 04:05:37;;;;;;;3.92;2.65;;;22.10;99.90;;;;;;5094173;28;20208;-57
2023/07/12 04:08:05;;;;;;;3.90;2.17;;;22.20;99.90;;;;;;5094165;28;20638;-57
2023/07/12 04:10:32;;;;;;;5.35;2.50;;;22.30;99.90;;;;;;5093025;28;20204;-58
2023/07/12 04:13:00;;;;;;;6.05;2.50;;;22.30;99.90;;;;;;5094137;28;20711;-57
2023/07/12 04:15:27;;;;;;;3.45;2.10;;;22.30;99.90;;;;;;5093896;28;20590;-58
2023/07/12 04:17:54;;;;;;;6.72;2.30;;;22.40;99.90;;;;;;5093854;28;20231;-57
2023/07/12 04:20:20;;;;;;;5.57;2.53;;;22.50;99.90;;;;;;5093976;28;20280;-58
2023/07/12 04:22:49;;;;;;;3.30;2.00;;;22.60;99.90;;;;;;5093793;28;20285;-57
2023/07/12 04:25:16;;;;;;;5.28;2.35;;;22.60;99.90;;;;;;5093813;28;20216;-57
2023/07/12 04:27:43;;;;;;;5.35;2.30;;;22.60;99.90;;;;;;5093718;28;20204;-57
2023/07/12 04:30:14;;;;;;;8.63;3.15;;;22.70;99.90;;;;;;5093488;28;20204;-57
2023/07/12 04:32:40;;;;;;;5.50;2.25;;;22.70;99.90;;;;;;5093630;28;20708;-57
2023/07/12 04:35:08;;;;;;;3.53;2.03;;;22.80;99.90;;;;;;5093662;28;20248;-57
2023/07/12 04:37:36;;;;;;;3.53;2.22;;;22.90;99.90;;;;;;5093479;28;20200;-57
2023/07/12 04:40:03;;;;;;;3.47;2.08;;;23.00;99.90;;;;;;5093762;28;20208;-58
2023/07/12 04:42:30;;;;;;;3.92;2.50;;;23.10;99.90;;;;;;5093372;28;20273;-56
2023/07/12 04:44:57;;;;;;;5.28;2.47;;;23.20;99.90;;;;;;5093467;28;20204;-58
2023/07/12 04:47:26;;;;;;;6.45;2.63;;;23.40;99.90;;;;;;5092916;28;20215;-57
2023/07/12 04:49:53;;;;;;;5.93;2.30;;;23.70;99.90;;;;;;5093663;28;20246;-57
2023/07/12 04:52:19;;;;;;;4.20;1.90;;;24.00;99.90;;;;;;5093131;28;20228;-57
2023/07/12 04:54:46;;;;;;;4.65;2.47;;;24.40;99.90;;;;;;5093207;28;20204;-57
2023/07/12 04:57:13;;;;;;;4.80;2.10;;;24.80;99.90;;;;;;5093079;28;20204;-57
2023/07/12 04:59:39;;;;;;;3.47;2.00;;;25.20;99.90;;;;;;5093152;28;20220;-58
2023/07/12 05:02:06;;;;;;;6.97;2.45;;;25.40;99.90;;;;;;5093137;28;20228;-57
2023/07/12 05:04:35;;;;;;;5.85;2.17;;;25.60;99.90;;;;;;5093003;28;20204;-56
2023/07/12 05:07:02;;;;;;;8.68;2.13;;;25.70;99.90;;;;;;5092853;28;20431;-58
2023/07/12 05:09:28;;;;;;;4.93;2.25;;;25.70;99.90;;;;;;5092907;28;20249;-57
2023/07/12 05:11:55;;;;;;;5.55;2.08;;;25.70;99.90;;;;;;5092707;28;20224;-58
2023/07/12 05:14:22;;;;;;;2.83;2.20;;;25.70;99.90;;;;;;5092959;28;20294;-59
2023/07/12 05:16:48;;;;;;;6.38;2.70;;;25.60;99.90;;;;;;5092509;28;20253;-58
2023/07/12 05:19:15;;;;;;;10.23;3.00;;;25.60;99.90;;;;;;5092731;28;20226;-58
2023/07/12 05:21:43;;;;;;;7.13;2.80;;;25.70;99.90;;;;;;5092355;28;20232;-57
2023/07/12 05:24:10;;;;;;;9.45;2.53;;;25.70;99.90;;;;;;5091664;28;20730;-57
2023/07/12 05:26:37;;;;;;;4.20;2.60;;;25.80;99.90;;;;;;5091289;28;20664;-57
2023/07/12 05:29:03;;;;;;;5.18;2.22;;;25.90;99.90;;;;;;5092055;28;20196;-57
2023/07/12 05:31:31;;;;;;;7.22;2.58;;;26.10;99.90;;;;;;5091451;28;20292;-59
2023/07/12 05:33:58;;;;;;;4.07;2.40;;;26.30;99.90;;;;;;5091745;28;20204;-59
2023/07/12 05:36:24;;;;;;;5.47;2.55;;;26.60;99.90;;;;;;5091191;28;20676;-57
2023/07/12 05:38:53;;;;;;;6.10;2.90;;;26.80;99.90;;;;;;5091339;28;20228;-58
2023/07/12 05:41:20;;;;;;;6.47;2.75;;;26.90;99.90;;;;;;5091251;28;20285;-59
2023/07/12 05:43:46;;;;;;;5.50;2.53;;;27.10;99.90;;;;;;5091650;28;20208;-59
2023/07/12 05:46:13;;;;;;;4.40;2.50;;;27.20;99.90;;;;;;5091472;28;20208;-57
2023/07/12 05:48:40;;;;;;;6.70;2.88;;;27.30;99.90;;;;;;5091331;28;20200;-57
2023/07/12 05:51:08;;;;;;;5.15;2.22;;;27.30;99.90;;;;;;5091386;28;20207;-59
2023/07/12 05:53:34;;;;;;;6.95;2.90;;;27.50;99.90;;;;;;5091151;28;20224;-58
2023/07/12 05:56:04;;;;;;;7.00;2.40;;;27.50;99.90;;;;;;5091197;28;20261;-56
2023/07/12 05:58:31;;;;;;;4.65;2.70;;;27.60;99.90;;;;;;5091402;28;20613;-56
2023/07/12 06:00:59;;;;;;;5.47;2.33;;;27.50;99.90;;;;;;5091313;28;20211;-55
2023/07/12 06:03:26;;;;;;;4.63;2.70;;;27.60;99.90;;;;;;5091005;28;20609;-55
2023/07/12 06:05:53;;;;;;;4.93;2.85;;;27.70;99.90;;;;;;5090941;28;20208;-55
2023/07/12 06:08:20;;;;;;;9.90;3.00;;;27.80;99.90;;;;;;5091515;28;20307;-56
2023/07/12 06:10:47;;;;;;;28.77;5.93;;;28.00;99.90;;;;;;5091243;28;20303;-55
2023/07/12 06:13:15;;;;;;;41.60;7.65;;;28.20;99.90;;;;;;5091068;28;20228;-56
2023/07/12 06:15:42;;;;;;;45.45;7.25;;;28.40;99.90;;;;;;5090585;28;20249;-53
2023/07/12 06:18:09;;;;;;;30.40;4.95;;;28.70;99.90;;;;;;5090697;28;20208;-53
2023/07/12 06:20:36;;;;;;;34.97;6.20;;;29.10;99.90;;;;;;5090613;28;20204;-53
2023/07/12 06:23:03;;;;;;;28.60;5.47;;;29.60;99.90;;;;;;5055263;28;1026294;-53
2023/07/12 06:25:30;;;;;;;31.85;5.78;;;30.10;99.90;;;;;;5091489;28;20511;-53
2023/07/12 06:27:57;;;;;;;18.83;4.13;;;30.60;99.90;;;;;;5091313;28;20767;-53
2023/07/12 06:30:25;;;;;;;18.73;4.32;;;30.80;99.90;;;;;;5091362;28;20721;-55
2023/07/12 06:32:52;;;;;;;13.07;4.03;;;30.60;99.90;;;;;;5090645;28;20269;-54
2023/07/12 06:35:19;;;;;;;10.27;3.35;;;30.40;99.90;;;;;;5091293;28;20253;-55
2023/07/12 06:37:45;;;;;;;16.77;4.07;;;30.30;99.90;;;;;;5091354;28;20238;-54
2023/07/12 06:40:12;;;;;;;11.23;3.70;;;30.40;99.90;;;;;;5091471;28;20583;-54
2023/07/12 06:42:39;;;;;;;11.45;3.70;;;30.60;99.90;;;;;;5091134;28;20235;-54
2023/07/12 06:45:06;;;;;;;17.25;3.83;;;31.30;99.90;;;;;;5091358;28;20205;-54
2023/07/12 06:47:35;;;;;;;35.20;5.45;;;31.80;99.90;;;;;;5091086;28;20212;-53
2023/07/12 06:50:02;;;;;;;13.60;3.42;;;32.60;99.90;;;;;;5091488;28;20236;-57
2023/07/12 06:52:28;;;;;;;24.98;4.90;;;33.90;99.90;;;;;;5088492;28;20221;-61
2023/07/12 06:54:55;;;;;;;5.25;2.60;;;35.40;96.70;;;;;;5091273;28;20215;-63
2023/07/12 06:57:22;;;;;;;15.00;3.40;;;36.70;92.90;;;;;;5090745;28;20200;-62
2023/07/12 06:59:48;;;;;;;13.85;3.30;;;38.00;88.40;;;;;;5090908;28;20270;-61
2023/07/12 07:02:15;;;;;;;19.75;3.67;;;38.90;82.80;;;;;;5090357;28;20278;-55
2023/07/12 07:04:43;;;;;;;9.80;2.88;;;39.10;78.50;;;;;;5090722;28;20696;-55
2023/07/12 07:07:10;;;;;;;4.32;2.45;;;39.40;76.60;;;;;;5090904;28;20257;-55
2023/07/12 07:09:38;;;;;;;7.25;2.67;;;39.50;72.60;;;;;;5090895;28;20384;-55
2023/07/12 07:12:05;;;;;;;5.55;2.50;;;40.00;70.00;;;;;;5091134;28;20267;-54
2023/07/12 07:14:32;;;;;;;7.25;2.97;;;40.60;68.60;;;;;;5091031;28;20215;-55
2023/07/12 07:16:59;;;;;;;8.50;2.97;;;41.10;65.70;;;;;;5090401;28;20683;-57
2023/07/12 07:19:26;;;;;;;7.25;2.80;;;41.40;64.30;;;;;;5090750;28;20772;-62
2023/07/12 07:21:54;;;;;;;6.10;2.60;;;41.20;64.10;;;;;;5091434;28;20284;-62
2023/07/12 07:24:20;;;;;;;9.70;2.78;;;40.50;63.20;;;;;;5090993;28;20580;-63
2023/07/12 07:26:47;;;;;;;6.93;3.22;;;39.40;64.80;;;;;;5090892;28;20257;-62
2023/07/12 07:29:14;;;;;;;7.07;2.90;;;38.60;67.10;;;;;;5090557;28;20204;-62
2023/07/12 07:31:40;;;;;;;9.35;2.97;;;38.10;68.20;;;;;;5091046;28;20224;-61
2023/07/12 07:34:07;;;;;;;7.88;2.30;;;37.80;68.20;;;;;;5091132;28;20428;-60
2023/07/12 07:36:34;;;;;;;5.95;2.50;;;37.90;67.20;;;;;;5081672;28;20205;-58
2023/07/12 07:39:02;;;;;;;2.92;2.22;;;37.80;67.40;;;;;;5090482;28;20233;-62
2023/07/12 07:41:29;;;;;;;5.22;2.92;;;38.20;65.00;;;;;;5090487;28;20208;-58
2023/07/12 07:43:56;;;;;;;14.68;3.78;;;38.10;65.00;;;;;;5090401;28;20208;-60
2023/07/12 07:46:23;;;;;;;5.30;2.30;;;38.00;65.20;;;;;;5094133;28;20737;-59
2023/07/12 07:48:50;;;;;;;5.07;2.10;;;38.00;64.90;;;;;;5094416;28;20289;-61
2023/07/12 07:51:17;;;;;;;3.80;2.22;;;38.40;63.80;;;;;;5094611;28;20200;-61
2023/07/12 07:53:43;;;;;;;18.73;3.47;;;38.60;62.60;;;;;;5094381;28;20211;-58
2023/07/12 07:56:12;;;;;;;3.95;2.00;;;38.90;61.80;;;;;;5093992;28;20204;-59
2023/07/12 07:58:39;;;;;;;3.53;2.10;;;39.40;60.40;;;;;;5092723;28;20291;-61
2023/07/12 08:01:05;;;;;;;20.55;4.00;;;39.70;58.90;;;;;;5093486;28;20232;-58
2023/07/12 08:03:34;;;;;;;4.43;2.22;;;39.70;58.80;;;;;;5092835;28;20296;-60
2023/07/12 08:06:02;;;;;;;5.93;2.20;;;39.90;58.90;;;;;;5092457;28;20300;-59
2023/07/12 08:08:29;;;;;;;6.47;2.50;;;40.70;56.80;;;;;;5093903;28;20294;-59
2023/07/12 08:10:56;;;;;;;3.53;2.10;;;41.30;56.00;;;;;;5093594;28;20265;-59
2023/07/12 08:13:24;;;;;;;4.35;2.03;;;41.90;54.00;;;;;;5093871;28;20301;-62
2023/07/12 08:15:51;;;;;;;10.15;2.67;;;42.10;53.80;;;;;;5093494;28;20208;-62
2023/07/12 08:18:17;;;;;;;8.50;2.30;;;42.30;53.40;;;;;;5093873;28;20214;-64
2023/07/12 08:20:44;;;;;;;4.70;2.20;;;42.30;53.40;;;;;;5093545;28;20813;-62
2023/07/12 08:23:11;;;;;;;5.18;2.40;;;41.90;53.20;;;;;;5093324;28;20723;-61
2023/07/12 08:25:37;;;;;;;5.32;2.10;;;41.70;53.10;;;;;;5093185;28;20272;-58
2023/07/12 08:28:04;;;;;;;7.18;2.22;;;41.70;53.10;;;;;;5092980;28;20218;-59
2023/07/12 08:30:32;;;;;;;4.28;2.30;;;42.10;52.50;;;;;;5093437;28;20586;-62
2023/07/12 08:32:59;;;;;;;6.38;2.05;;;42.00;52.70;;;;;;5093392;28;20288;-63
2023/07/12 08:35:26;;;;;;;3.92;2.20;;;41.70;52.50;;;;;;5093233;28;20257;-59
2023/07/12 08:37:55;;;;;;;4.95;2.00;;;41.80;52.90;;;;;;5092730;28;20199;-59
2023/07/12 08:40:21;;;;;;;4.35;2.30;;;42.10;52.10;;;;;;5092671;28;20227;-59
2023/07/12 08:42:48;;;;;;;5.07;2.05;;;42.30;51.60;;;;;;5093376;28;20223;-59
2023/07/12 08:45:25;;;;;;;3.78;2.00;;;41.90;51.60;;;;;;5093180;28;20687;-59
2023/07/12 08:47:58;;;;;;;4.05;2.08;;;40.60;53.50;;;;;;5093332;28;20208;-61
2023/07/12 08:50:27;;;;;;;6.28;2.67;;;40.20;54.40;;;;;;5092793;28;20241;-61
2023/07/12 08:52:54;;;;;;;6.80;2.58;;;40.50;54.40;;;;;;5092611;28;20267;-61
2023/07/12 08:55:22;;;;;;;6.25;2.50;;;40.30;54.40;;;;;;5093273;28;20290;-61
2023/07/12 08:57:55;;;;;;;5.55;2.15;;;39.40;55.10;;;;;;5092234;28;20208;-61
2023/07/12 09:00:24;;;;;;;4.43;2.17;;;38.20;57.20;;;;;;5092774;28;20289;-60
2023/07/12 09:02:50;;;;;;;4.03;2.33;;;37.40;59.20;;;;;;5092340;28;20712;-61
2023/07/12 09:05:24;;;;;;;3.60;2.13;;;36.90;59.20;;;;;;5092521;28;20572;-61
2023/07/12 09:07:55;;;;;;;7.22;2.20;;;36.60;60.30;;;;;;5092646;28;20200;-62
2023/07/12 09:10:29;;;;;;;4.38;2.42;;;36.30;60.90;;;;;;5092992;28;20196;-62
2023/07/12 09:12:59;;;;;;;3.45;2.20;;;36.00;61.80;;;;;;5092498;28;20278;-61
2023/07/12 09:15:33;;;;;;;4.57;2.38;;;35.70;63.00;;;;;;5092505;28;20208;-62
2023/07/12 09:18:01;;;;;;;5.00;2.50;;;35.40;63.20;;;;;;5091933;28;20212;-61
2023/07/12 09:20:30;;;;;;;5.38;2.10;;;35.20;63.30;;;;;;5092578;28;20224;-60
2023/07/12 09:22:59;;;;;;;6.35;2.10;;;35.00;64.50;;;;;;5092119;28;20723;-61
2023/07/12 09:25:28;;;;;;;5.47;2.13;;;34.70;64.70;;;;;;5092505;28;20200;-59
2023/07/12 09:27:54;;;;;;;4.72;2.30;;;34.50;65.40;;;;;;5092004;28;20204;-62
2023/07/12 09:30:26;;;;;;;4.85;2.55;;;34.40;65.50;;;;;;5092047;28;20291;-61
2023/07/12 09:32:54;;;;;;;8.77;2.58;;;34.40;66.40;;;;;;5092483;28;20251;-60
2023/07/12 09:35:28;;;;;;;5.28;2.25;;;34.30;65.50;;;;;;5092495;28;20200;-61
2023/07/12 09:38:01;;;;;;;5.47;2.90;;;34.30;66.00;;;;;;5091997;28;20307;-61
2023/07/12 09:40:30;;;;;;;4.03;2.00;;;34.30;65.50;;;;;;5091852;28;20224;-61
2023/07/12 09:42:58;;;;;;;5.38;2.67;;;34.20;65.60;;;;;;5092184;28;20230;-62
2023/07/12 09:45:30;;;;;;;6.82;2.65;;;34.00;65.90;;;;;;5092070;28;20235;-61
2023/07/12 09:48:06;;;;;;;3.60;2.22;;;33.90;66.70;;;;;;5091856;28;20224;-62
2023/07/12 09:50:38;;;;;;;4.60;2.00;;;33.90;67.50;;;;;;5091904;28;20200;-61
2023/07/12 09:53:16;;;;;;;3.33;2.10;;;34.10;66.70;;;;;;5091601;28;20231;-62
2023/07/12 09:55:49;;;;;;;5.38;2.40;;;34.30;66.20;;;;;;5091444;28;20212;-60
2023/07/12 09:58:24;;;;;;;3.90;2.20;;;34.50;64.20;;;;;;5092016;28;20619;-62
2023/07/12 10:00:57;;;;;;;3.20;1.88;;;34.50;63.00;;;;;;5091788;28;20396;-61
2023/07/12 10:03:27;;;;;;;4.28;2.38;;;34.40;64.20;;;;;;5091676;28;20726;-62
2023/07/12 10:05:57;;;;;;;5.90;3.05;;;34.30;64.30;;;;;;5091316;28;20262;-62
2023/07/12 10:08:31;;;;;;;3.78;2.40;;;34.30;64.50;;;;;;5090802;28;20204;-62
2023/07/12 10:11:06;;;;;;;7.80;2.60;;;34.10;64.60;;;;;;5091641;28;20261;-62
2023/07/12 10:13:40;;;;;;;2.90;2.22;;;33.80;65.40;;;;;;5091590;28;20253;-61
2023/07/12 10:16:13;;;;;;;5.50;2.60;;;33.90;65.40;;;;;;5091232;28;20619;-61
2023/07/12 10:18:40;;;;;;;4.95;2.55;;;34.10;65.00;;;;;;5091372;28;20265;-61
2023/07/12 10:21:20;;;;;;;5.60;2.30;;;34.40;64.70;;;;;;5091431;28;20224;-61
2023/07/12 10:23:52;;;;;;;3.78;2.13;;;34.50;63.80;;;;;;5091405;28;20268;-61
2023/07/12 10:26:19;;;;;;;4.72;1.90;;;34.50;64.90;;;;;;5091323;28;20218;-62
2023/07/12 10:28:52;;;;;;;3.85;2.05;;;34.20;65.10;;;;;;5091575;28;20251;-58
2023/07/12 10:31:31;;;;;;;7.18;2.40;;;33.80;66.20;;;;;;5091442;28;20253;-58
2023/07/12 10:34:11;;;;;;;3.75;2.33;;;33.40;66.70;;;;;;5091719;28;20208;-57
2023/07/12 10:36:39;;;;;;;4.47;2.10;;;33.00;66.80;;;;;;5091318;28;20260;-57
2023/07/12 10:39:08;;;;;;;4.40;2.33;;;32.50;67.90;;;;;;5091653;28;20291;-57
2023/07/12 10:41:42;;;;;;;2.65;1.92;;;32.50;68.40;;;;;;5091310;28;20700;-59
2023/07/12 10:44:15;;;;;;;5.80;2.35;;;32.40;67.80;;;;;;5091519;28;20227;-59
2023/07/12 10:46:46;;;;;;;4.78;2.08;;;32.10;68.90;;;;;;5091191;28;20650;-57
2023/07/12 10:49:15;;;;;;;5.63;2.10;;;32.00;69.70;;;;;;5090896;28;20265;-61
2023/07/12 10:52:03;;;;;;;4.15;2.40;;;31.70;69.50;;;;;;5088577;28;20280;-64
2023/07/12 10:54:51;;;;;;;7.30;2.17;;;31.50;71.30;;;;;;5091012;28;20291;-60
2023/07/12 10:57:27;;;;;;;5.20;2.40;;;31.60;71.70;;;;;;5089544;28;20210;-62
2023/07/12 11:00:03;;;;;;;4.63;2.00;;;31.70;71.20;;;;;;5090731;28;20615;-64
2023/07/12 11:02:32;;;;;;;4.07;1.90;;;31.70;73.10;;;;;;5091411;28;20318;-63
2023/07/12 11:05:00;;;;;;;3.25;1.98;;;32.10;71.70;;;;;;5091141;28;20204;-62
2023/07/12 11:07:34;;;;;;;3.70;2.20;;;32.30;70.60;;;;;;5089538;28;20682;-62
2023/07/12 11:10:17;;;;;;;3.15;2.00;;;32.30;71.20;;;;;;5090128;28;20212;-63
2023/07/12 11:12:53;;;;;;;2.97;1.65;;;32.20;71.80;;;;;;5090955;28;20598;-63
2023/07/12 11:15:22;;;;;;;3.25;1.95;;;32.00;72.20;;;;;;5090926;28;20289;-64
2023/07/12 11:17:54;;;;;;;3.38;2.20;;;32.20;72.20;;;;;;5091274;28;20208;-59
2023/07/12 11:20:23;;;;;;;4.93;2.60;;;32.40;71.60;;;;;;5092934;28;20224;-61
2023/07/12 11:22:55;;;;;;;5.50;2.58;;;32.40;70.60;;;;;;5093993;28;20719;-61
2023/07/12 11:25:34;;;;;;;3.17;2.20;;;32.20;69.10;;;;;;5094877;28;20253;-65
2023/07/12 11:28:03;;;;;;;4.50;2.63;;;31.90;71.60;;;;;;5092482;28;20204;-61
2023/07/12 11:30:44;;;;;;;4.75;3.35;;;32.00;68.80;;;;;;5094199;28;20295;-62
2023/07/12 11:33:22;;;;;;;3.85;2.50;;;32.20;69.10;;;;;;5094494;28;20331;-61
2023/07/12 11:35:52;;;;;;;5.25;2.95;;;32.50;69.00;;;;;;5094557;28;20207;-61
2023/07/12 11:38:23;;;;;;;6.40;2.08;;;32.90;67.70;;;;;;5094914;28;20439;-62
2023/07/12 11:40:54;;;;;;;4.20;2.47;;;33.00;67.20;;;;;;5093429;28;20262;-62
2023/07/12 11:43:34;;;;;;;3.72;2.13;;;32.70;67.90;;;;;;5094152;28;20278;-63
2023/07/12 11:46:03;;;;;;;3.75;2.40;;;32.70;68.60;;;;;;5097190;28;20222;-65
2023/07/12 11:48:32;;;;;;;4.75;2.40;;;32.70;68.80;;;;;;5095617;28;20242;-63
2023/07/12 11:51:08;;;;;;;3.35;2.35;;;32.60;68.50;;;;;;5097340;28;20236;-62
2023/07/12 11:53:35;;;;;;;3.90;2.50;;;32.50;68.70;;;;;;5094708;28;20766;-62
2023/07/12 11:56:03;;;;;;;5.60;2.53;;;32.50;68.40;;;;;;5093960;28;20200;-62
2023/07/12 11:58:31;;;;;;;4.13;2.33;;;32.50;69.30;;;;;;5094519;28;20219;-61
2023/07/12 12:01:00;;;;;;;9.07;2.42;;;32.40;68.90;;;;;;5094259;28;20224;-62
2023/07/12 12:03:27;;;;;;;2.90;2.30;;;32.40;70.10;;;;;;5094217;28;20301;-65
2023/07/12 12:05:55;;;;;;;4.07;2.40;;;32.20;69.30;;;;;;5093927;28;20204;-60
2023/07/12 12:08:25;;;;;;;3.67;2.67;;;32.00;70.20;;;;;;5093749;28;20254;-60
2023/07/12 12:10:53;;;;;;;5.30;2.28;;;31.70;70.80;;;;;;5094268;28;20196;-62
2023/07/12 12:13:30;;;;;;;4.03;2.42;;;31.70;71.20;;;;;;5093933;28;20598;-62
2023/07/12 12:16:06;;;;;;;3.45;2.20;;;31.70;71.80;;;;;;5093705;28;20307;-59
2023/07/12 12:18:34;;;;;;;4.28;2.20;;;31.90;71.40;;;;;;5094168;28;20210;-61
2023/07/12 12:21:04;;;;;;;4.80;2.50;;;31.80;71.00;;;;;;5093748;28;20228;-62
2023/07/12 12:23:34;;;;;;;5.10;2.72;;;31.90;71.30;;;;;;5093680;28;20260;-62
2023/07/12 12:26:05;;;;;;;4.07;2.15;;;31.90;71.40;;;;;;5093503;28;20687;-62
2023/07/12 12:28:37;;;;;;;5.00;2.50;;;31.90;70.90;;;;;;5094275;28;20227;-62
2023/07/12 12:31:08;;;;;;;7.32;3.00;;;32.00;70.70;;;;;;5092542;28;20196;-61
2023/07/12 12:33:34;;;;;;;4.53;2.40;;;31.80;71.60;;;;;;5093479;28;20276;-57
2023/07/12 12:36:03;;;;;;;3.92;2.80;;;31.90;71.70;;;;;;5093266;28;20676;-56
2023/07/12 12:38:33;;;;;;;3.78;2.55;;;31.90;71.20;;;;;;5093723;28;20234;-59
2023/07/12 12:41:11;;;;;;;5.90;2.67;;;32.00;70.80;;;;;;5093752;28;20220;-59
2023/07/12 12:43:55;;;;;;;4.57;2.10;;;32.00;71.80;;;;;;5093460;28;20273;-58
2023/07/12 12:46:22;;;;;;;3.80;2.55;;;32.00;71.50;;;;;;5090974;28;20219;-61
2023/07/12 12:48:50;;;;;;;6.80;2.60;;;32.10;71.00;;;;;;5093243;28;20209;-60
2023/07/12 12:51:17;;;;;;;7.07;2.85;;;32.10;71.00;;;;;;5093169;28;20204;-60
2023/07/12 12:53:44;;;;;;;5.47;2.30;;;32.10;72.40;;;;;;5093302;28;20653;-60